sensor_id;sensor_type;location;lat;lon;timestamp;pressure;altitude;pressure_sealevel;temperature;humidity
73566;BME280;61846;52.970;-3.168;2023-04-02T00:01:37;101189.83;;;11.57;44.39
73566;BME280;61846;52.970;-3.168;2023-04-02T00:04:11;101190.92;;;11.67;43.76
73566;BME280;61846;52.970;-3.168;2023-04-02T00:06:34;101195.39;;;12.09;42.95
73566;BME280;61846;52.970;-3.168;2023-04-02T00:08:54;101198.60;;;12.50;42.33
73566;BME280;61846;52.970;-3.168;2023-04-02T00:11:26;101198.93;;;12.26;42.48
73566;BME280;61846;52.970;-3.168;2023-04-02T00:13:45;101204.45;;;12.56;41.91
73566;BME280;61846;52.970;-3.168;2023-04-02T00:16:13;101209.20;;;12.06;42.47
73566;BME280;61846;52.970;-3.168;2023-04-02T00:18:41;101215.23;;;12.20;42.16
73566;BME280;61846;52.970;-3.168;2023-04-02T00:21:09;101217.55;;;12.27;41.75
73566;BME280;61846;52.970;-3.168;2023-04-02T00:23:27;101221.50;;;12.02;42.05
73566;BME280;61846;52.970;-3.168;2023-04-02T00:25:52;101220.56;;;13.02;41.38
73566;BME280;61846;52.970;-3.168;2023-04-02T00:28:20;101224.30;;;12.35;42.07
73566;BME280;61846;52.970;-3.168;2023-04-02T00:30:47;101225.15;;;12.37;41.74
73566;BME280;61846;52.970;-3.168;2023-04-02T00:33:13;101231.70;;;12.43;41.91
73566;BME280;61846;52.970;-3.168;2023-04-02T00:35:38;101234.13;;;12.07;42.52
73566;BME280;61846;52.970;-3.168;2023-04-02T00:38:01;101236.11;;;12.73;41.53
73566;BME280;61846;52.970;-3.168;2023-04-02T00:40:27;101237.23;;;12.50;41.43
73566;BME280;61846;52.970;-3.168;2023-04-02T00:42:52;101241.70;;;12.94;41.18
73566;BME280;61846;52.970;-3.168;2023-04-02T00:45:21;101246.54;;;12.02;42.53
73566;BME280;61846;52.970;-3.168;2023-04-02T00:47:42;101251.70;;;12.71;41.80
73566;BME280;61846;52.970;-3.168;2023-04-02T00:50:17;101256.15;;;12.34;41.82
73566;BME280;61846;52.970;-3.168;2023-04-02T00:52:32;101258.19;;;12.90;41.32
73566;BME280;61846;52.970;-3.168;2023-04-02T00:55:03;101257.11;;;12.88;41.72
73566;BME280;61846;52.970;-3.168;2023-04-02T00:57:24;101258.15;;;12.07;41.99
73566;BME280;61846;52.970;-3.168;2023-04-02T00:59:55;101264.36;;;11.82;43.27
73566;BME280;61846;52.970;-3.168;2023-04-02T01:02:23;101268.19;;;11.93;43.34
73566;BME280;61846;52.970;-3.168;2023-04-02T01:04:40;101269.05;;;12.14;43.04
73566;BME280;61846;52.970;-3.168;2023-04-02T01:07:07;101272.19;;;12.29;43.06
73566;BME280;61846;52.970;-3.168;2023-04-02T01:09:44;101274.40;;;12.07;42.66
73566;BME280;61846;52.970;-3.168;2023-04-02T01:14:34;101279.34;;;12.42;42.49
73566;BME280;61846;52.970;-3.168;2023-04-02T01:16:53;101282.31;;;12.29;42.46
73566;BME280;61846;52.970;-3.168;2023-04-02T01:21:52;101287.93;;;11.19;44.30
73566;BME280;61846;52.970;-3.168;2023-04-02T01:24:06;101291.03;;;11.13;44.29
73566;BME280;61846;52.970;-3.168;2023-04-02T01:26:41;101289.65;;;11.78;42.94
73566;BME280;61846;52.970;-3.168;2023-04-02T01:29:02;101289.40;;;12.61;42.18
73566;BME280;61846;52.970;-3.168;2023-04-02T01:31:21;101292.07;;;12.84;41.90
73566;BME280;61846;52.970;-3.168;2023-04-02T01:33:47;101295.50;;;10.85;44.76
73566;BME280;61846;52.970;-3.168;2023-04-02T01:36:15;101294.96;;;11.42;44.23
73566;BME280;61846;52.970;-3.168;2023-04-02T01:38:41;101294.91;;;12.10;42.89
73566;BME280;61846;52.970;-3.168;2023-04-02T01:41:08;101300.31;;;11.55;43.76
73566;BME280;61846;52.970;-3.168;2023-04-02T01:43:32;101301.23;;;12.15;43.27
73566;BME280;61846;52.970;-3.168;2023-04-02T01:45:56;101301.01;;;12.67;41.82
73566;BME280;61846;52.970;-3.168;2023-04-02T01:48:22;101297.11;;;12.53;41.82
73566;BME280;61846;52.970;-3.168;2023-04-02T01:50:47;101300.28;;;12.01;42.88
73566;BME280;61846;52.970;-3.168;2023-04-02T01:53:13;101300.48;;;12.82;42.04
73566;BME280;61846;52.970;-3.168;2023-04-02T01:55:40;101304.25;;;11.89;43.47
73566;BME280;61846;52.970;-3.168;2023-04-02T01:58:02;101305.47;;;11.82;43.42
73566;BME280;61846;52.970;-3.168;2023-04-02T02:00:28;101305.44;;;11.67;43.27
73566;BME280;61846;52.970;-3.168;2023-04-02T02:02:52;101308.50;;;12.44;42.31
73566;BME280;61846;52.970;-3.168;2023-04-02T02:05:20;101308.87;;;12.16;42.07
73566;BME280;61846;52.970;-3.168;2023-04-02T02:07:43;101307.04;;;12.57;41.92
73566;BME280;61846;52.970;-3.168;2023-04-02T02:10:11;101312.10;;;12.75;41.16
73566;BME280;61846;52.970;-3.168;2023-04-02T02:12:34;101315.31;;;12.58;41.16
73566;BME280;61846;52.970;-3.168;2023-04-02T02:15:01;101314.17;;;13.20;40.80
73566;BME280;61846;52.970;-3.168;2023-04-02T02:17:29;101316.13;;;12.39;41.26
73566;BME280;61846;52.970;-3.168;2023-04-02T02:19:53;101316.68;;;13.02;40.79
73566;BME280;61846;52.970;-3.168;2023-04-02T02:22:24;101318.87;;;13.19;40.35
73566;BME280;61846;52.970;-3.168;2023-04-02T02:24:42;101321.00;;;12.76;40.64
73566;BME280;61846;52.970;-3.168;2023-04-02T02:29:36;101330.70;;;13.23;40.21
73566;BME280;61846;52.970;-3.168;2023-04-02T02:31:59;101331.07;;;12.83;41.05
73566;BME280;61846;52.970;-3.168;2023-04-02T02:34:30;101334.98;;;13.47;40.26
73566;BME280;61846;52.970;-3.168;2023-04-02T02:36:52;101340.10;;;13.27;39.90
73566;BME280;61846;52.970;-3.168;2023-04-02T02:39:20;101345.65;;;12.75;41.18
73566;BME280;61846;52.970;-3.168;2023-04-02T02:41:45;101351.87;;;13.50;40.25
73566;BME280;61846;52.970;-3.168;2023-04-02T02:44:12;101357.25;;;13.06;40.24
73566;BME280;61846;52.970;-3.168;2023-04-02T02:46:33;101358.26;;;12.79;41.11
73566;BME280;61846;52.970;-3.168;2023-04-02T02:48:59;101362.69;;;12.79;41.59
73566;BME280;61846;52.970;-3.168;2023-04-02T02:51:27;101368.06;;;12.17;42.52
73566;BME280;61846;52.970;-3.168;2023-04-02T02:53:50;101371.55;;;12.30;42.65
73566;BME280;61846;52.970;-3.168;2023-04-02T02:56:14;101378.31;;;11.26;43.95
73566;BME280;61846;52.970;-3.168;2023-04-02T02:58:40;101379.21;;;12.50;42.74
73566;BME280;61846;52.970;-3.168;2023-04-02T03:01:05;101382.58;;;11.99;43.16
73566;BME280;61846;52.970;-3.168;2023-04-02T03:03:32;101384.26;;;11.10;44.56
73566;BME280;61846;52.970;-3.168;2023-04-02T03:06:00;101378.97;;;12.55;42.42
73566;BME280;61846;52.970;-3.168;2023-04-02T03:08:26;101378.67;;;12.33;42.90
73566;BME280;61846;52.970;-3.168;2023-04-02T03:10:53;101380.63;;;11.88;43.17
73566;BME280;61846;52.970;-3.168;2023-04-02T03:13:19;101385.27;;;12.36;42.75
73566;BME280;61846;52.970;-3.168;2023-04-02T03:15:45;101390.95;;;12.20;42.84
73566;BME280;61846;52.970;-3.168;2023-04-02T03:18:07;101387.59;;;11.72;43.33
73566;BME280;61846;52.970;-3.168;2023-04-02T03:20:34;101389.52;;;11.62;43.82
73566;BME280;61846;52.970;-3.168;2023-04-02T03:22:59;101386.61;;;11.96;43.76
73566;BME280;61846;52.970;-3.168;2023-04-02T03:25:27;101392.80;;;11.80;44.00
73566;BME280;61846;52.970;-3.168;2023-04-02T03:27:47;101392.96;;;12.70;42.83
73566;BME280;61846;52.970;-3.168;2023-04-02T03:30:24;101391.36;;;12.45;42.26
73566;BME280;61846;52.970;-3.168;2023-04-02T03:32:39;101391.51;;;12.83;41.85
73566;BME280;61846;52.970;-3.168;2023-04-02T03:35:09;101397.57;;;12.06;43.31
73566;BME280;61846;52.970;-3.168;2023-04-02T03:37:31;101406.28;;;12.76;42.28
73566;BME280;61846;52.970;-3.168;2023-04-02T03:39:56;101410.79;;;12.13;42.90
73566;BME280;61846;52.970;-3.168;2023-04-02T03:42:21;101414.88;;;12.39;42.56
73566;BME280;61846;52.970;-3.168;2023-04-02T03:44:48;101416.71;;;11.57;43.89
73566;BME280;61846;52.970;-3.168;2023-04-02T03:47:13;101419.75;;;12.41;42.76
73566;BME280;61846;52.970;-3.168;2023-04-02T03:49:40;101424.66;;;12.55;42.54
73566;BME280;61846;52.970;-3.168;2023-04-02T03:52:04;101426.35;;;12.03;42.83
73566;BME280;61846;52.970;-3.168;2023-04-02T03:54:26;101428.80;;;12.44;42.86
73566;BME280;61846;52.970;-3.168;2023-04-02T03:56:52;101432.06;;;12.42;42.43
73566;BME280;61846;52.970;-3.168;2023-04-02T03:59:33;101433.80;;;12.42;42.18
73566;BME280;61846;52.970;-3.168;2023-04-02T04:01:48;101441.93;;;12.74;41.83
73566;BME280;61846;52.970;-3.168;2023-04-02T04:04:12;101448.76;;;12.46;41.55
73566;BME280;61846;52.970;-3.168;2023-04-02T04:06:35;101451.44;;;12.41;42.20
73566;BME280;61846;52.970;-3.168;2023-04-02T04:09:06;101459.69;;;12.16;42.68
73566;BME280;61846;52.970;-3.168;2023-04-02T04:11:29;101460.27;;;12.08;42.17
73566;BME280;61846;52.970;-3.168;2023-04-02T04:13:55;101463.60;;;11.92;42.14
73566;BME280;61846;52.970;-3.168;2023-04-02T04:16:19;101461.68;;;12.44;41.44
73566;BME280;61846;52.970;-3.168;2023-04-02T04:18:46;101462.91;;;12.77;41.18
73566;BME280;61846;52.970;-3.168;2023-04-02T04:21:14;101464.59;;;12.72;41.19
73566;BME280;61846;52.970;-3.168;2023-04-02T04:23:35;101466.83;;;12.68;40.22
73566;BME280;61846;52.970;-3.168;2023-04-02T04:26:01;101469.30;;;12.57;41.16
73566;BME280;61846;52.970;-3.168;2023-04-02T04:28:26;101476.33;;;12.77;40.69
73566;BME280;61846;52.970;-3.168;2023-04-02T04:30:51;101480.24;;;12.28;41.68
73566;BME280;61846;52.970;-3.168;2023-04-02T04:33:18;101481.41;;;12.46;41.38
73566;BME280;61846;52.970;-3.168;2023-04-02T04:35:45;101479.66;;;12.56;41.27
73566;BME280;61846;52.970;-3.168;2023-04-02T04:38:12;101484.11;;;12.96;40.43
73566;BME280;61846;52.970;-3.168;2023-04-02T04:40:33;101486.18;;;12.42;41.20
73566;BME280;61846;52.970;-3.168;2023-04-02T04:43:00;101487.48;;;13.08;40.55
73566;BME280;61846;52.970;-3.168;2023-04-02T04:45:34;101487.86;;;12.90;40.29
73566;BME280;61846;52.970;-3.168;2023-04-02T04:47:52;101489.48;;;12.75;40.85
73566;BME280;61846;52.970;-3.168;2023-04-02T04:50:16;101489.32;;;12.68;40.30
73566;BME280;61846;52.970;-3.168;2023-04-02T04:52:40;101492.75;;;12.82;41.18
73566;BME280;61846;52.970;-3.168;2023-04-02T04:55:18;101496.11;;;12.82;40.86
73566;BME280;61846;52.970;-3.168;2023-04-02T04:57:32;101495.55;;;13.03;40.43
73566;BME280;61846;52.970;-3.168;2023-04-02T05:00:00;101497.66;;;12.93;39.70
73566;BME280;61846;52.970;-3.168;2023-04-02T05:02:24;101503.07;;;12.31;41.70
73566;BME280;61846;52.970;-3.168;2023-04-02T05:04:50;101504.75;;;13.30;40.24
73566;BME280;61846;52.970;-3.168;2023-04-02T05:07:14;101507.48;;;12.45;41.71
73566;BME280;61846;52.970;-3.168;2023-04-02T05:09:40;101509.86;;;13.21;40.22
73566;BME280;61846;52.970;-3.168;2023-04-02T05:12:09;101514.09;;;13.35;39.82
73566;BME280;61846;52.970;-3.168;2023-04-02T05:14:33;101520.49;;;13.32;40.05
73566;BME280;61846;52.970;-3.168;2023-04-02T05:16:59;101524.19;;;12.46;40.97
73566;BME280;61846;52.970;-3.168;2023-04-02T05:19:23;101521.95;;;12.33;40.39
73566;BME280;61846;52.970;-3.168;2023-04-02T05:21:48;101523.36;;;13.14;39.96
73566;BME280;61846;52.970;-3.168;2023-04-02T05:26:38;101530.24;;;11.72;40.93
73566;BME280;61846;52.970;-3.168;2023-04-02T05:29:07;101530.94;;;11.90;40.60
73566;BME280;61846;52.970;-3.168;2023-04-02T05:31:34;101535.82;;;10.87;42.05
73566;BME280;61846;52.970;-3.168;2023-04-02T05:33:53;101537.13;;;11.17;41.65
73566;BME280;61846;52.970;-3.168;2023-04-02T05:36:20;101543.54;;;12.16;40.42
73566;BME280;61846;52.970;-3.168;2023-04-02T05:38:45;101552.94;;;11.95;40.88
73566;BME280;61846;52.970;-3.168;2023-04-02T05:41:19;101557.14;;;11.93;41.31
73566;BME280;61846;52.970;-3.168;2023-04-02T05:43:37;101559.54;;;12.39;40.04
73566;BME280;61846;52.970;-3.168;2023-04-02T05:46:05;101563.10;;;12.71;39.81
73566;BME280;61846;52.970;-3.168;2023-04-02T05:48:30;101566.14;;;12.08;40.35
73566;BME280;61846;52.970;-3.168;2023-04-02T05:50:54;101565.95;;;12.25;40.58
73566;BME280;61846;52.970;-3.168;2023-04-02T05:53:21;101571.21;;;11.53;41.12
73566;BME280;61846;52.970;-3.168;2023-04-02T05:55:49;101576.65;;;12.38;40.11
73566;BME280;61846;52.970;-3.168;2023-04-02T05:58:15;101580.38;;;12.17;39.77
73566;BME280;61846;52.970;-3.168;2023-04-02T06:00:50;101584.12;;;12.35;39.75
73566;BME280;61846;52.970;-3.168;2023-04-02T06:03:03;101587.58;;;11.91;40.67
73566;BME280;61846;52.970;-3.168;2023-04-02T06:05:27;101594.53;;;12.35;39.54
73566;BME280;61846;52.970;-3.168;2023-04-02T06:07:55;101599.22;;;12.69;39.84
73566;BME280;61846;52.970;-3.168;2023-04-02T06:10:18;101597.33;;;11.73;40.96
73566;BME280;61846;52.970;-3.168;2023-04-02T06:12:45;101600.40;;;12.23;39.89
73566;BME280;61846;52.970;-3.168;2023-04-02T06:15:12;101605.43;;;11.96;40.85
73566;BME280;61846;52.970;-3.168;2023-04-02T06:17:42;101612.55;;;12.36;39.88
73566;BME280;61846;52.970;-3.168;2023-04-02T06:19:59;101614.00;;;12.95;39.21
73566;BME280;61846;52.970;-3.168;2023-04-02T06:22:30;101615.14;;;13.21;39.02
73566;BME280;61846;52.970;-3.168;2023-04-02T06:24:56;101616.52;;;12.77;39.15
73566;BME280;61846;52.970;-3.168;2023-04-02T06:27:17;101615.88;;;12.71;39.57
73566;BME280;61846;52.970;-3.168;2023-04-02T06:29:42;101617.54;;;12.96;39.75
73566;BME280;61846;52.970;-3.168;2023-04-02T06:32:08;101622.16;;;12.35;40.36
73566;BME280;61846;52.970;-3.168;2023-04-02T06:34:32;101627.40;;;12.39;40.22
73566;BME280;61846;52.970;-3.168;2023-04-02T06:36:59;101628.65;;;12.91;39.13
73566;BME280;61846;52.970;-3.168;2023-04-02T06:39:24;101627.49;;;12.28;40.40
73566;BME280;61846;52.970;-3.168;2023-04-02T06:41:55;101630.24;;;11.84;40.51
73566;BME280;61846;52.970;-3.168;2023-04-02T06:44:16;101634.70;;;11.71;41.01
73566;BME280;61846;52.970;-3.168;2023-04-02T06:46:42;101634.79;;;12.89;39.02
73566;BME280;61846;52.970;-3.168;2023-04-02T06:49:13;101638.65;;;11.90;39.46
73566;BME280;61846;52.970;-3.168;2023-04-02T06:51:31;101644.64;;;12.98;38.54
73566;BME280;61846;52.970;-3.168;2023-04-02T06:53:56;101653.91;;;12.46;39.10
73566;BME280;61846;52.970;-3.168;2023-04-02T06:56:34;101659.73;;;12.25;40.02
73566;BME280;61846;52.970;-3.168;2023-04-02T06:58:47;101663.60;;;11.88;40.72
73566;BME280;61846;52.970;-3.168;2023-04-02T07:01:18;101664.67;;;12.16;40.57
73566;BME280;61846;52.970;-3.168;2023-04-02T07:03:39;101672.04;;;12.03;40.48
73566;BME280;61846;52.970;-3.168;2023-04-02T07:06:04;101673.70;;;11.59;41.28
73566;BME280;61846;52.970;-3.168;2023-04-02T07:08:29;101678.53;;;10.94;42.67
73566;BME280;61846;52.970;-3.168;2023-04-02T07:10:55;101678.69;;;11.88;41.77
73566;BME280;61846;52.970;-3.168;2023-04-02T07:13:22;101680.34;;;11.37;42.18
73566;BME280;61846;52.970;-3.168;2023-04-02T07:15:48;101679.03;;;11.96;41.62
73566;BME280;61846;52.970;-3.168;2023-04-02T07:18:22;101677.60;;;12.23;41.19
73566;BME280;61846;52.970;-3.168;2023-04-02T07:20:37;101668.82;;;12.45;40.59
73566;BME280;61846;52.970;-3.168;2023-04-02T07:23:03;101668.72;;;12.02;40.57
73566;BME280;61846;52.970;-3.168;2023-04-02T07:25:28;101667.25;;;12.32;40.75
73566;BME280;61846;52.970;-3.168;2023-04-02T07:27:54;101672.74;;;12.40;40.42
73566;BME280;61846;52.970;-3.168;2023-04-02T07:30:19;101672.19;;;12.40;40.43
73566;BME280;61846;52.970;-3.168;2023-04-02T07:32:45;101672.61;;;12.44;40.46
73566;BME280;61846;52.970;-3.168;2023-04-02T07:35:11;101681.18;;;11.59;41.25
73566;BME280;61846;52.970;-3.168;2023-04-02T07:37:36;101677.95;;;12.48;40.10
73566;BME280;61846;52.970;-3.168;2023-04-02T07:40:02;101683.17;;;12.22;40.40
73566;BME280;61846;52.970;-3.168;2023-04-02T07:42:27;101690.96;;;12.06;40.76
73566;BME280;61846;52.970;-3.168;2023-04-02T07:44:53;101689.14;;;12.61;40.15
73566;BME280;61846;52.970;-3.168;2023-04-02T07:47:18;101695.56;;;12.63;39.24
73566;BME280;61846;52.970;-3.168;2023-04-02T07:49:44;101706.68;;;10.23;42.72
73566;BME280;61846;52.970;-3.168;2023-04-02T07:52:11;101710.98;;;11.16;41.58
73566;BME280;61846;52.970;-3.168;2023-04-02T07:54:35;101714.64;;;11.71;40.61
73566;BME280;61846;52.970;-3.168;2023-04-02T07:57:01;101714.71;;;12.05;40.45
73566;BME280;61846;52.970;-3.168;2023-04-02T07:59:26;101716.77;;;12.04;39.77
73566;BME280;61846;52.970;-3.168;2023-04-02T08:01:51;101725.99;;;12.21;39.93
73566;BME280;61846;52.970;-3.168;2023-04-02T08:04:18;101733.07;;;10.58;42.37
73566;BME280;61846;52.970;-3.168;2023-04-02T08:06:43;101735.11;;;11.76;41.04
73566;BME280;61846;52.970;-3.168;2023-04-02T08:09:08;101734.25;;;12.13;40.70
73566;BME280;61846;52.970;-3.168;2023-04-02T08:11:33;101735.68;;;12.10;41.00
73566;BME280;61846;52.970;-3.168;2023-04-02T08:13:59;101739.59;;;11.53;40.80
73566;BME280;61846;52.970;-3.168;2023-04-02T08:16:25;101743.36;;;11.23;41.07
73566;BME280;61846;52.970;-3.168;2023-04-02T08:18:50;101748.95;;;11.50;41.11
73566;BME280;61846;52.970;-3.168;2023-04-02T08:21:16;101756.01;;;11.91;40.72
73566;BME280;61846;52.970;-3.168;2023-04-02T08:23:41;101757.25;;;12.05;40.40
73566;BME280;61846;52.970;-3.168;2023-04-02T08:26:07;101761.22;;;11.61;41.47
73566;BME280;61846;52.970;-3.168;2023-04-02T08:28:32;101763.80;;;11.52;41.80
73566;BME280;61846;52.970;-3.168;2023-04-02T08:30:58;101764.96;;;12.39;40.26
73566;BME280;61846;52.970;-3.168;2023-04-02T08:33:23;101767.62;;;12.58;39.93
73566;BME280;61846;52.970;-3.168;2023-04-02T08:35:49;101774.40;;;11.61;40.57
73566;BME280;61846;52.970;-3.168;2023-04-02T08:38:15;101779.49;;;12.04;40.65
73566;BME280;61846;52.970;-3.168;2023-04-02T08:40:41;101782.77;;;11.28;41.67
73566;BME280;61846;52.970;-3.168;2023-04-02T08:43:17;101782.89;;;12.27;40.43
73566;BME280;61846;52.970;-3.168;2023-04-02T08:45:40;101789.38;;;12.47;39.78
73566;BME280;61846;52.970;-3.168;2023-04-02T08:47:56;101793.38;;;12.83;39.83
73566;BME280;61846;52.970;-3.168;2023-04-02T08:50:27;101799.13;;;11.78;40.49
73566;BME280;61846;52.970;-3.168;2023-04-02T08:52:46;101804.34;;;12.00;40.72
73566;BME280;61846;52.970;-3.168;2023-04-02T08:55:18;101807.20;;;12.49;40.07
73566;BME280;61846;52.970;-3.168;2023-04-02T08:57:42;101810.24;;;12.71;39.96
73566;BME280;61846;52.970;-3.168;2023-04-02T09:00:07;101814.40;;;12.09;40.09
73566;BME280;61846;52.970;-3.168;2023-04-02T09:02:33;101822.95;;;11.15;42.56
73566;BME280;61846;52.970;-3.168;2023-04-02T09:04:56;101825.65;;;11.72;40.61
73566;BME280;61846;52.970;-3.168;2023-04-02T09:07:19;101825.52;;;12.25;40.22
73566;BME280;61846;52.970;-3.168;2023-04-02T09:09:46;101829.08;;;12.13;40.27
73566;BME280;61846;52.970;-3.168;2023-04-02T09:12:16;101832.40;;;11.39;41.04
73566;BME280;61846;52.970;-3.168;2023-04-02T09:14:41;101836.22;;;10.74;42.59
73566;BME280;61846;52.970;-3.168;2023-04-02T09:17:03;101838.01;;;10.43;41.91
73566;BME280;61846;52.970;-3.168;2023-04-02T09:19:33;101844.99;;;11.81;40.38
73566;BME280;61846;52.970;-3.168;2023-04-02T09:21:59;101848.33;;;10.59;42.36
73566;BME280;61846;52.970;-3.168;2023-04-02T09:24:18;101855.75;;;9.38;43.75
73566;BME280;61846;52.970;-3.168;2023-04-02T09:26:45;101853.57;;;10.25;43.41
73566;BME280;61846;52.970;-3.168;2023-04-02T09:31:37;101857.95;;;11.06;42.08
73566;BME280;61846;52.970;-3.168;2023-04-02T09:34:01;101860.95;;;11.77;40.96
73566;BME280;61846;52.970;-3.168;2023-04-02T09:36:32;101863.01;;;12.27;39.69
73566;BME280;61846;52.970;-3.168;2023-04-02T09:38:58;101863.43;;;12.29;39.41
73566;BME280;61846;52.970;-3.168;2023-04-02T09:41:19;101870.23;;;11.93;38.80
73566;BME280;61846;52.970;-3.168;2023-04-02T09:43:42;101872.13;;;12.07;38.28
73566;BME280;61846;52.970;-3.168;2023-04-02T09:46:17;101871.79;;;11.16;40.26
73566;BME280;61846;52.970;-3.168;2023-04-02T09:48:35;101870.54;;;11.89;39.85
73566;BME280;61846;52.970;-3.168;2023-04-02T09:51:05;101875.81;;;12.23;38.73
73566;BME280;61846;52.970;-3.168;2023-04-02T09:53:28;101878.95;;;12.09;38.92
73566;BME280;61846;52.970;-3.168;2023-04-02T09:58:16;101884.07;;;11.23;39.73
73566;BME280;61846;52.970;-3.168;2023-04-02T10:00:50;101885.00;;;11.96;39.17
73566;BME280;61846;52.970;-3.168;2023-04-02T10:03:17;101884.19;;;11.82;39.17
73566;BME280;61846;52.970;-3.168;2023-04-02T10:05:33;101886.21;;;12.14;38.99
73566;BME280;61846;52.970;-3.168;2023-04-02T10:08:05;101888.72;;;12.30;38.55
73566;BME280;61846;52.970;-3.168;2023-04-02T10:10:29;101891.21;;;12.32;38.16
73566;BME280;61846;52.970;-3.168;2023-04-02T10:12:54;101895.14;;;12.45;39.16
73566;BME280;61846;52.970;-3.168;2023-04-02T10:15:20;101895.39;;;12.12;38.37
73566;BME280;61846;52.970;-3.168;2023-04-02T10:17:41;101902.08;;;12.61;38.50
73566;BME280;61846;52.970;-3.168;2023-04-02T10:20:16;101908.80;;;12.52;38.39
73566;BME280;61846;52.970;-3.168;2023-04-02T10:22:32;101912.81;;;12.49;38.84
73566;BME280;61846;52.970;-3.168;2023-04-02T10:24:58;101917.10;;;12.30;38.95
73566;BME280;61846;52.970;-3.168;2023-04-02T10:27:28;101918.61;;;12.46;38.49
73566;BME280;61846;52.970;-3.168;2023-04-02T10:29:56;101919.49;;;12.62;38.25
73566;BME280;61846;52.970;-3.168;2023-04-02T10:32:18;101921.45;;;12.97;37.74
73566;BME280;61846;52.970;-3.168;2023-04-02T10:34:43;101917.71;;;12.65;38.03
73566;BME280;61846;52.970;-3.168;2023-04-02T10:39:36;101929.45;;;12.20;38.95
73566;BME280;61846;52.970;-3.168;2023-04-02T10:42:02;101933.99;;;12.75;37.73
73566;BME280;61846;52.970;-3.168;2023-04-02T10:44:29;101938.10;;;13.02;37.48
73566;BME280;61846;52.970;-3.168;2023-04-02T10:46:56;101943.51;;;12.57;38.21
73566;BME280;61846;52.970;-3.168;2023-04-02T10:49:20;101945.37;;;12.32;38.98
73566;BME280;61846;52.970;-3.168;2023-04-02T10:51:43;101944.39;;;12.47;38.12
73566;BME280;61846;52.970;-3.168;2023-04-02T10:54:16;101943.63;;;12.17;38.68
73566;BME280;61846;52.970;-3.168;2023-04-02T10:56:30;101946.41;;;11.88;39.66
73566;BME280;61846;52.970;-3.168;2023-04-02T10:58:59;101952.58;;;12.64;38.20
73566;BME280;61846;52.970;-3.168;2023-04-02T11:01:24;101959.43;;;10.06;41.48
73566;BME280;61846;52.970;-3.168;2023-04-02T11:03:48;101957.32;;;12.30;39.50
73566;BME280;61846;52.970;-3.168;2023-04-02T11:06:16;101957.78;;;11.77;39.19
73566;BME280;61846;52.970;-3.168;2023-04-02T11:08:39;101956.31;;;12.47;39.40
73566;BME280;61846;52.970;-3.168;2023-04-02T11:11:05;101956.51;;;12.42;39.04
73566;BME280;61846;52.970;-3.168;2023-04-02T11:13:31;101957.04;;;12.46;39.31
73566;BME280;61846;52.970;-3.168;2023-04-02T11:15:54;101958.12;;;13.15;37.57
73566;BME280;61846;52.970;-3.168;2023-04-02T11:18:23;101961.05;;;13.15;38.07
73566;BME280;61846;52.970;-3.168;2023-04-02T11:20:54;101959.87;;;11.64;40.15
73566;BME280;61846;52.970;-3.168;2023-04-02T11:23:11;101956.63;;;12.43;38.59
73566;BME280;61846;52.970;-3.168;2023-04-02T11:25:36;101954.57;;;13.06;37.40
73566;BME280;61846;52.970;-3.168;2023-04-02T11:28:12;101955.23;;;12.35;39.44
73566;BME280;61846;52.970;-3.168;2023-04-02T11:30:27;101960.71;;;13.27;37.69
73566;BME280;61846;52.970;-3.168;2023-04-02T11:32:52;101965.72;;;12.49;38.63
73566;BME280;61846;52.970;-3.168;2023-04-02T11:35:24;101969.30;;;12.64;38.36
73566;BME280;61846;52.970;-3.168;2023-04-02T11:37:44;101970.09;;;12.71;38.29
73566;BME280;61846;52.970;-3.168;2023-04-02T11:42:35;101971.94;;;12.89;38.19
73566;BME280;61846;52.970;-3.168;2023-04-02T11:47:26;101973.00;;;12.70;38.61
73566;BME280;61846;52.970;-3.168;2023-04-02T11:49:58;101976.39;;;13.00;38.35
73566;BME280;61846;52.970;-3.168;2023-04-02T11:52:20;101977.91;;;12.52;39.39
73566;BME280;61846;52.970;-3.168;2023-04-02T11:54:41;101981.21;;;13.07;37.45
73566;BME280;61846;52.970;-3.168;2023-04-02T11:57:16;101981.51;;;12.38;38.23
73566;BME280;61846;52.970;-3.168;2023-04-02T11:59:38;101980.24;;;12.97;37.91
73566;BME280;61846;52.970;-3.168;2023-04-02T12:02:05;101981.98;;;13.10;38.15
73566;BME280;61846;52.970;-3.168;2023-04-02T12:04:39;101979.98;;;13.32;37.51
73566;BME280;61846;52.970;-3.168;2023-04-02T12:07:00;101976.96;;;13.24;36.72
73566;BME280;61846;52.970;-3.168;2023-04-02T12:09:19;101978.61;;;13.30;36.91
73566;BME280;61846;52.970;-3.168;2023-04-02T12:11:40;101977.42;;;13.41;35.48
73566;BME280;61846;52.970;-3.168;2023-04-02T12:16:32;101976.26;;;13.47;37.52
73566;BME280;61846;52.970;-3.168;2023-04-02T12:18:57;101973.07;;;13.31;37.74
73566;BME280;61846;52.970;-3.168;2023-04-02T12:21:25;101971.03;;;13.49;36.93
73566;BME280;61846;52.970;-3.168;2023-04-02T12:23:48;101974.37;;;12.60;37.01
73566;BME280;61846;52.970;-3.168;2023-04-02T12:26:24;101971.99;;;13.00;36.80
73566;BME280;61846;52.970;-3.168;2023-04-02T12:28:37;101974.45;;;12.90;37.23
73566;BME280;61846;52.970;-3.168;2023-04-02T12:31:10;101977.46;;;12.48;38.22
73566;BME280;61846;52.970;-3.168;2023-04-02T12:33:30;101979.57;;;12.66;37.28
73566;BME280;61846;52.970;-3.168;2023-04-02T12:35:57;101978.71;;;13.14;36.87
73566;BME280;61846;52.970;-3.168;2023-04-02T12:38:21;101982.92;;;12.75;37.37
73566;BME280;61846;52.970;-3.168;2023-04-02T12:40:50;101987.87;;;12.92;37.56
73566;BME280;61846;52.970;-3.168;2023-04-02T12:45:36;101987.35;;;12.28;37.56
73566;BME280;61846;52.970;-3.168;2023-04-02T12:48:04;101988.04;;;12.90;37.52
73566;BME280;61846;52.970;-3.168;2023-04-02T12:50:27;101987.67;;;11.82;39.97
73566;BME280;61846;52.970;-3.168;2023-04-02T12:52:53;101989.03;;;12.50;39.49
73566;BME280;61846;52.970;-3.168;2023-04-02T12:55:19;101990.34;;;11.15;41.02
73566;BME280;61846;52.970;-3.168;2023-04-02T12:57:43;101993.93;;;11.04;41.19